createdAt,value
2023-03-01T00:01:42.005Z,97346.56
2023-03-01T00:04:09.605Z,97354.81
2023-03-01T00:06:37.411Z,97355.72
2023-03-01T00:09:06.441Z,97356.75
2023-03-01T00:11:35.209Z,97355.22
2023-03-01T00:14:05.839Z,97351.19
2023-03-01T00:16:35.286Z,97363.31
2023-03-01T00:19:03.311Z,97359.94
2023-03-01T00:21:30.938Z,97363.53
2023-03-01T00:23:59.282Z,97357.38
2023-03-01T00:26:28.639Z,97354.41
2023-03-01T00:28:58.519Z,97350.69
2023-03-01T00:31:28.303Z,97352.25
2023-03-01T00:33:58.063Z,97347.91
2023-03-01T00:36:27.610Z,97348.94
2023-03-01T00:38:55.434Z,97345.84
2023-03-01T00:41:24.286Z,97349.56
2023-03-01T00:43:53.175Z,97347.72
2023-03-01T00:46:24.854Z,97343.28
2023-03-01T00:48:52.740Z,97342.59
2023-03-01T00:51:22.314Z,97347.72
2023-03-01T00:53:52.918Z,97350.97
2023-03-01T00:56:21.155Z,97347.91
2023-03-01T00:58:49.107Z,97354.41
2023-03-01T01:01:20.232Z,97353.56
2023-03-01T01:03:49.170Z,97355.53
2023-03-01T01:06:18.589Z,97353.88
2023-03-01T01:08:46.222Z,97341.97
2023-03-01T01:11:14.744Z,97340.09
2023-03-01T01:13:42.455Z,97339.06
2023-03-01T01:16:10.959Z,97340.09
2023-03-01T01:18:39.928Z,97341.34
2023-03-01T01:21:09.213Z,97334.88
2023-03-01T01:23:36.961Z,97331.19
2023-03-01T01:26:09.509Z,97325.31
2023-03-01T01:28:37.453Z,97324.59
2023-03-01T01:31:05.420Z,97328.38
2023-03-01T01:33:33.073Z,97324.28
2023-03-01T01:36:01.941Z,97317.63
2023-03-01T01:38:29.507Z,97315.13
2023-03-01T01:40:57.312Z,97310.81
2023-03-01T01:43:27.056Z,97307.44
2023-03-01T01:45:58.805Z,97298.81
2023-03-01T01:48:41.278Z,97303.13
2023-03-01T01:51:15.502Z,97301.41
2023-03-01T01:53:47.913Z,97304.78
2023-03-01T01:56:18.984Z,97300.03
2023-03-01T01:58:48.456Z,97301.91
2023-03-01T02:01:16.208Z,97299.31
2023-03-01T02:03:46.708Z,97293.25
2023-03-01T02:06:21.330Z,97295.63
2023-03-01T02:08:51.444Z,97285.38
2023-03-01T02:11:20.322Z,97276.00
2023-03-01T02:13:50.111Z,97280.41
2023-03-01T02:16:18.870Z,97273.56
2023-03-01T02:18:46.821Z,97277.84
2023-03-01T02:21:32.123Z,97275.19
2023-03-01T02:24:04.399Z,97275.81
2023-03-01T02:26:40.000Z,97270.88
2023-03-01T02:29:09.253Z,97270.28
2023-03-01T02:31:45.970Z,97275.59
2023-03-01T02:34:16.894Z,97263.06
2023-03-01T02:36:48.147Z,97266.34
2023-03-01T02:39:18.922Z,97263.59
2023-03-01T02:41:49.909Z,97258.97
2023-03-01T02:44:18.839Z,97263.06
2023-03-01T02:46:48.752Z,97249.91
2023-03-01T02:49:27.043Z,97265.84
2023-03-01T02:52:21.780Z,97248.56
2023-03-01T02:54:54.653Z,97250.94
2023-03-01T02:57:23.813Z,97244.06
2023-03-01T02:59:54.441Z,97244.69
2023-03-01T03:02:36.938Z,97239.31
2023-03-01T03:05:10.694Z,97236.66
2023-03-01T03:07:40.393Z,97231.59
2023-03-01T03:10:12.182Z,97226.69
2023-03-01T03:12:40.025Z,97225.97
2023-03-01T03:15:13.548Z,97222.47
2023-03-01T03:17:44.119Z,97217.25
2023-03-01T03:20:19.848Z,97219.59
2023-03-01T03:22:48.697Z,97212.81
2023-03-01T03:25:16.537Z,97214.56
2023-03-01T03:27:45.868Z,97210.25
2023-03-01T03:30:17.174Z,97208.59
2023-03-01T03:32:53.022Z,97212.72
2023-03-01T03:35:21.565Z,97216.09
2023-03-01T03:38:04.431Z,97214.34
2023-03-01T03:40:35.064Z,97207.34
2023-03-01T03:43:03.068Z,97210.66
2023-03-01T03:45:34.239Z,97213.22
2023-03-01T03:48:02.078Z,97208.88
2023-03-01T03:50:30.242Z,97206.22
2023-03-01T03:52:57.825Z,97208.19
2023-03-01T03:55:29.050Z,97194.75
2023-03-01T03:58:02.847Z,97198.22
2023-03-01T04:00:31.776Z,97186.09
2023-03-01T04:02:59.317Z,97192.88
2023-03-01T04:05:27.540Z,97192.19
2023-03-01T04:08:02.073Z,97194.63
2023-03-01T04:10:30.979Z,97190.19
2023-03-01T04:12:58.735Z,97186.59
2023-03-01T04:15:28.081Z,97189.88
2023-03-01T04:17:57.654Z,97184.72
2023-03-01T04:20:27.428Z,97192.25
2023-03-01T04:22:59.679Z,97187.81
2023-03-01T04:25:27.373Z,97191.09
2023-03-01T04:27:54.894Z,97188.53
2023-03-01T04:30:26.392Z,97180.81
2023-03-01T04:32:53.900Z,97177.41
2023-03-01T04:35:22.882Z,97186.88
2023-03-01T04:37:51.861Z,97195.31
2023-03-01T04:40:19.583Z,97184.31
2023-03-01T04:42:48.104Z,97183.72
2023-03-01T04:45:15.703Z,97185.69
2023-03-01T04:47:45.230Z,97190.09
2023-03-01T04:50:15.362Z,97191.13
2023-03-01T04:52:45.085Z,97188.66
2023-03-01T04:55:13.358Z,97184.16
2023-03-01T04:57:41.218Z,97182.06
2023-03-01T05:00:21.721Z,97184.63
2023-03-01T05:02:54.219Z,97184.53
2023-03-01T05:05:29.874Z,97177.53
2023-03-01T05:08:01.142Z,97178.25
2023-03-01T05:10:31.107Z,97180.13
2023-03-01T05:12:59.363Z,97178.47
2023-03-01T05:15:28.818Z,97178.25
2023-03-01T05:17:59.578Z,97179.31
2023-03-01T05:20:27.868Z,97177.75
2023-03-01T05:22:58.015Z,97181.44
2023-03-01T05:25:27.412Z,97182.38
2023-03-01T05:27:54.985Z,97179.72
2023-03-01T05:30:23.508Z,97183.19
2023-03-01T05:32:56.489Z,97181.69
2023-03-01T05:35:25.838Z,97171.81
2023-03-01T05:37:53.400Z,97176.25
2023-03-01T05:40:22.839Z,97173.91
2023-03-01T05:42:54.691Z,97176.66
2023-03-01T05:45:23.666Z,97180.19
2023-03-01T05:47:51.862Z,97172.88
2023-03-01T05:50:21.739Z,97177.44
2023-03-01T05:52:50.485Z,97179.47
2023-03-01T05:55:18.861Z,97181.88
2023-03-01T05:57:46.729Z,97176.44
2023-03-01T06:00:17.691Z,97181.47
2023-03-01T06:02:45.265Z,97182.09
2023-03-01T06:05:14.801Z,97183.22
2023-03-01T06:07:43.340Z,97186.69
2023-03-01T06:10:13.027Z,97185.06
2023-03-01T06:12:42.056Z,97180.13
2023-03-01T06:15:11.289Z,97184.75
2023-03-01T06:17:44.084Z,97183.13
2023-03-01T06:20:14.063Z,97177.06
2023-03-01T06:22:41.595Z,97179.84
2023-03-01T06:25:09.959Z,97175.81
2023-03-01T06:27:37.977Z,97177.03
2023-03-01T06:30:06.542Z,97180.94
2023-03-01T06:32:35.366Z,97181.03
2023-03-01T06:35:04.684Z,97183.81
2023-03-01T06:37:33.309Z,97187.28
2023-03-01T06:40:00.828Z,97187.09
2023-03-01T06:42:28.341Z,97183.19
2023-03-01T06:44:55.847Z,97179.28
2023-03-01T06:47:23.367Z,97183.22
2023-03-01T06:49:50.890Z,97171.19
2023-03-01T06:52:19.741Z,97176.66
2023-03-01T06:54:47.265Z,97175.00
2023-03-01T06:57:14.766Z,97175.94
2023-03-01T06:59:42.329Z,97177.63
2023-03-01T07:02:12.115Z,97176.50
2023-03-01T07:04:40.115Z,97183.22
2023-03-01T07:07:08.130Z,97176.75
2023-03-01T07:09:37.166Z,97177.03
2023-03-01T07:12:05.303Z,97175.88
2023-03-01T07:14:33.018Z,97174.31
2023-03-01T07:17:00.549Z,97171.09
2023-03-01T07:19:28.219Z,97175.38
2023-03-01T07:21:56.541Z,97166.75
2023-03-01T07:24:24.532Z,97170.91
2023-03-01T07:26:54.412Z,97157.28
2023-03-01T07:29:22.017Z,97165.50
2023-03-01T07:31:49.625Z,97154.41
2023-03-01T07:34:17.209Z,97150.81
2023-03-01T07:36:46.327Z,97149.88
2023-03-01T07:39:14.039Z,97148.13
2023-03-01T07:41:41.573Z,97151.69
2023-03-01T07:44:10.608Z,97150.25
2023-03-01T07:46:38.174Z,97149.38
2023-03-01T07:49:06.354Z,97151.03
2023-03-01T07:51:34.072Z,97142.75
2023-03-01T07:54:01.847Z,97139.28
2023-03-01T07:56:29.983Z,97138.69
2023-03-01T07:58:57.769Z,97127.06
2023-03-01T08:01:26.822Z,97133.03
2023-03-01T08:03:54.500Z,97132.69
2023-03-01T08:06:22.359Z,97132.22
2023-03-01T08:08:49.918Z,97139.16
2023-03-01T08:11:17.641Z,97128.97
2023-03-01T08:13:51.834Z,97131.75
2023-03-01T08:16:28.994Z,97134.59
2023-03-01T08:18:57.817Z,97130.19
2023-03-01T08:21:25.892Z,97130.13
2023-03-01T08:23:53.697Z,97125.28
2023-03-01T08:26:23.401Z,97127.09
2023-03-01T08:28:52.173Z,97130.66
2023-03-01T08:31:22.592Z,97125.47
2023-03-01T08:33:56.421Z,97117.47
2023-03-01T08:36:24.589Z,97120.03
2023-03-01T08:38:52.295Z,97112.22
2023-03-01T08:41:20.599Z,97116.06
2023-03-01T08:43:48.646Z,97110.44
2023-03-01T08:46:17.086Z,97109.00
2023-03-01T08:48:44.887Z,97104.16
2023-03-01T08:51:20.282Z,97099.94
2023-03-01T08:53:48.428Z,97102.16
2023-03-01T08:56:16.939Z,97105.63
2023-03-01T08:58:46.012Z,97103.59
2023-03-01T09:01:15.938Z,97105.00
2023-03-01T09:03:44.575Z,97097.91
2023-03-01T09:06:14.948Z,97103.88
2023-03-01T09:08:44.626Z,97101.47
2023-03-01T09:11:14.236Z,97090.25
2023-03-01T09:13:44.269Z,97086.47
2023-03-01T09:16:13.328Z,97092.09
2023-03-01T09:18:41.381Z,97088.31
2023-03-01T09:21:10.954Z,97082.69
2023-03-01T09:23:42.277Z,97077.94
2023-03-01T09:26:11.581Z,97080.56
2023-03-01T09:28:39.714Z,97071.41
2023-03-01T09:31:07.620Z,97085.63
2023-03-01T09:33:36.303Z,97075.28
2023-03-01T09:36:06.420Z,97063.31
2023-03-01T09:38:34.005Z,97057.88
2023-03-01T09:41:04.246Z,97063.94
2023-03-01T09:43:46.710Z,97065.31
2023-03-01T09:46:18.117Z,97069.00
2023-03-01T09:48:50.724Z,97072.59
2023-03-01T09:51:21.508Z,97067.06
2023-03-01T09:53:49.080Z,97066.72
2023-03-01T09:56:22.569Z,97061.59
2023-03-01T09:59:27.666Z,97052.31
2023-03-01T10:02:01.246Z,97054.09
2023-03-01T10:04:37.646Z,97039.66
2023-03-01T10:07:19.090Z,97041.75
2023-03-01T10:09:48.215Z,97043.53
2023-03-01T10:12:20.143Z,97038.94
2023-03-01T10:14:57.706Z,97038.59
2023-03-01T10:17:32.481Z,97038.84
2023-03-01T10:20:15.930Z,97034.72
2023-03-01T10:22:43.718Z,97029.06
2023-03-01T10:25:16.444Z,97025.75
2023-03-01T10:27:51.613Z,97028.53
2023-03-01T10:30:22.558Z,97027.28
2023-03-01T10:32:52.990Z,97024.25
2023-03-01T10:35:22.954Z,97018.72
2023-03-01T10:38:04.065Z,97012.34
2023-03-01T10:40:31.872Z,97007.63
2023-03-01T10:43:03.245Z,97006.47
2023-03-01T10:45:36.700Z,96997.66
2023-03-01T10:48:07.213Z,96991.88
2023-03-01T10:50:34.899Z,96986.94
2023-03-01T10:53:04.708Z,96984.84
2023-03-01T10:55:37.120Z,96977.00
2023-03-01T10:58:21.052Z,96975.41
2023-03-01T11:00:52.148Z,96978.84
2023-03-01T11:03:24.108Z,96969.75
2023-03-01T11:05:58.387Z,96961.88
2023-03-01T11:08:35.240Z,96949.13
2023-03-01T11:11:08.884Z,96953.56
2023-03-01T11:13:39.604Z,96951.34
2023-03-01T11:16:12.064Z,96947.28
2023-03-01T11:18:47.454Z,96944.22
2023-03-01T11:21:17.442Z,96951.94
2023-03-01T11:23:47.848Z,96947.28
2023-03-01T11:26:17.572Z,96947.28
2023-03-01T11:28:52.535Z,96939.75
2023-03-01T11:31:21.451Z,96947.84
2023-03-01T11:33:55.542Z,96941.16
2023-03-01T11:36:32.983Z,96941.25
2023-03-01T11:39:07.502Z,96930.19
2023-03-01T11:41:38.479Z,96929.94
2023-03-01T11:44:16.570Z,96919.91
2023-03-01T11:47:11.027Z,96916.59
2023-03-01T11:49:59.456Z,96918.16
2023-03-01T11:52:39.742Z,96910.72
2023-03-01T11:55:22.632Z,96908.69
2023-03-01T11:58:07.522Z,96904.63
2023-03-01T12:00:53.539Z,96901.44
2023-03-01T12:03:34.350Z,96883.78
2023-03-01T12:06:14.797Z,96881.38
2023-03-01T12:08:49.338Z,96886.81
2023-03-01T12:11:29.954Z,96872.97
2023-03-01T12:14:19.381Z,96873.69
2023-03-01T12:17:04.412Z,96874.31
2023-03-01T12:19:58.678Z,96873.66
2023-03-01T12:22:32.799Z,96865.78
2023-03-01T12:25:18.125Z,96862.34
2023-03-01T12:28:10.905Z,96864.50
2023-03-01T12:30:53.421Z,96858.50
2023-03-01T12:33:31.889Z,96855.75
2023-03-01T12:36:23.102Z,96846.06
2023-03-01T12:38:57.536Z,96835.47
2023-03-01T12:41:40.609Z,96843.03
2023-03-01T12:44:17.629Z,96833.69
2023-03-01T12:46:59.211Z,96831.22
2023-03-01T12:49:33.944Z,96831.91
2023-03-01T12:52:10.452Z,96836.41
2023-03-01T12:54:38.641Z,96830.13
2023-03-01T12:57:16.163Z,96829.84
2023-03-01T12:59:51.717Z,96825.63
2023-03-01T13:02:26.894Z,96822.94
2023-03-01T13:05:09.166Z,96811.34
2023-03-01T13:07:42.757Z,96820.19
2023-03-01T13:10:25.555Z,96813.81
2023-03-01T13:13:02.492Z,96810.75
2023-03-01T13:15:32.805Z,96805.91
2023-03-01T13:18:02.253Z,96805.97
2023-03-01T13:20:36.891Z,96807.16
2023-03-01T13:23:25.789Z,96809.50
2023-03-01T13:26:06.399Z,96805.28
2023-03-01T13:28:52.078Z,96803.66
2023-03-01T13:31:53.413Z,96796.53
2023-03-01T13:34:59.499Z,96813.69
2023-03-01T13:37:36.966Z,96817.47
2023-03-01T13:40:28.418Z,96804.84
2023-03-01T13:43:05.276Z,96808.44
2023-03-01T13:45:39.684Z,96794.88
2023-03-01T13:48:13.038Z,96791.63
2023-03-01T13:50:48.830Z,96790.72
2023-03-01T13:53:20.742Z,96782.06
2023-03-01T13:55:50.638Z,96784.53
2023-03-01T13:58:23.342Z,96784.72
2023-03-01T14:00:57.800Z,96789.59
2023-03-01T14:03:25.679Z,96784.47
2023-03-01T14:06:13.986Z,96794.06
2023-03-01T14:08:45.790Z,96794.78
2023-03-01T14:11:52.446Z,96805.09
2023-03-01T14:14:44.039Z,96804.16
2023-03-01T14:17:40.146Z,96797.38
2023-03-01T14:20:16.550Z,96805.22
2023-03-01T14:22:45.791Z,96802.03
2023-03-01T14:25:25.309Z,96813.13
2023-03-01T14:28:06.093Z,96807.81
2023-03-01T14:30:39.282Z,96812.88
2023-03-01T14:33:08.809Z,96823.97
2023-03-01T14:35:38.042Z,96818.47
2023-03-01T14:38:05.715Z,96813.56
2023-03-01T14:40:37.020Z,96814.56
2023-03-01T14:43:11.675Z,96805.75
2023-03-01T14:45:39.403Z,96816.34
2023-03-01T14:48:08.911Z,96812.28
2023-03-01T14:50:42.040Z,96804.03
2023-03-01T14:53:19.230Z,96807.06
2023-03-01T14:55:50.587Z,96803.31
2023-03-01T14:58:22.096Z,96801.22
2023-03-01T15:00:52.905Z,96795.59
2023-03-01T15:03:27.772Z,96794.97
2023-03-01T15:05:55.584Z,96800.34
2023-03-01T15:08:26.457Z,96796.13
2023-03-01T15:11:03.893Z,96800.16
2023-03-01T15:13:34.247Z,96795.16
2023-03-01T15:16:08.692Z,96797.09
2023-03-01T15:18:37.324Z,96799.06
2023-03-01T15:21:09.726Z,96795.81
2023-03-01T15:23:39.135Z,96791.91
2023-03-01T15:26:08.728Z,96793.22
2023-03-01T15:28:42.101Z,96788.38
2023-03-01T15:31:21.336Z,96793.06
2023-03-01T15:33:49.543Z,96779.75
2023-03-01T15:36:36.046Z,96786.09
2023-03-01T15:39:04.635Z,96781.88
2023-03-01T15:41:39.426Z,96785.47
2023-03-01T15:44:18.763Z,96780.25
2023-03-01T15:46:49.485Z,96777.66
2023-03-01T15:49:33.679Z,96775.69
2023-03-01T15:52:01.176Z,96780.25
2023-03-01T15:54:30.113Z,96771.16
2023-03-01T15:56:59.425Z,96769.69
2023-03-01T15:59:26.965Z,96771.47
2023-03-01T16:01:54.468Z,96768.72
2023-03-01T16:04:26.708Z,96759.13
2023-03-01T16:06:56.421Z,96756.88
2023-03-01T16:09:25.117Z,96747.78
2023-03-01T16:11:54.252Z,96746.13
2023-03-01T16:14:23.237Z,96731.53
2023-03-01T16:16:50.764Z,96730.53
2023-03-01T16:19:18.691Z,96728.13
2023-03-01T16:21:47.740Z,96726.81
2023-03-01T16:24:15.943Z,96725.53
2023-03-01T16:26:43.990Z,96721.78
2023-03-01T16:29:11.712Z,96726.84
2023-03-01T16:31:40.704Z,96717.91
2023-03-01T16:34:08.468Z,96715.78
2023-03-01T16:36:35.962Z,96730.25
2023-03-01T16:39:04.237Z,96737.06
2023-03-01T16:41:32.281Z,96742.75
2023-03-01T16:43:59.920Z,96752.00
2023-03-01T16:46:29.669Z,96759.47
2023-03-01T16:48:58.906Z,96767.44
2023-03-01T16:51:26.572Z,96764.19
2023-03-01T16:53:54.459Z,96772.47
2023-03-01T16:56:22.060Z,96758.00
2023-03-01T16:58:49.896Z,96777.34
2023-03-01T17:01:18.890Z,96780.09
2023-03-01T17:03:48.312Z,96778.91
2023-03-01T17:06:21.184Z,96776.66
2023-03-01T17:08:48.717Z,96794.03
2023-03-01T17:11:18.767Z,96790.28
2023-03-01T17:13:46.940Z,96798.03
2023-03-01T17:16:18.214Z,96803.22
2023-03-01T17:18:45.960Z,96805.31
2023-03-01T17:21:14.211Z,96810.97
2023-03-01T17:23:46.265Z,96815.66
2023-03-01T17:26:14.250Z,96817.25
2023-03-01T17:28:43.653Z,96828.25
2023-03-01T17:31:11.225Z,96828.88
2023-03-01T17:33:38.741Z,96830.97
2023-03-01T17:36:07.134Z,96824.47
2023-03-01T17:38:36.487Z,96824.94
2023-03-01T17:41:06.129Z,96823.63
2023-03-01T17:43:35.172Z,96817.09
2023-03-01T17:46:02.834Z,96830.53
2023-03-01T17:48:30.561Z,96827.59
2023-03-01T17:50:58.321Z,96828.88
2023-03-01T17:53:25.948Z,96836.94
2023-03-01T17:56:01.304Z,96832.88
2023-03-01T17:58:30.323Z,96830.75
2023-03-01T18:00:57.931Z,96827.81
2023-03-01T18:03:25.520Z,96825.66
2023-03-01T18:05:53.109Z,96825.16
2023-03-01T18:08:20.791Z,96840.34
2023-03-01T18:10:48.336Z,96834.78
2023-03-01T18:13:15.819Z,96838.50
2023-03-01T18:15:44.805Z,96838.94
2023-03-01T18:18:12.286Z,96832.75
2023-03-01T18:20:39.879Z,96844.66
2023-03-01T18:23:07.550Z,96841.72
2023-03-01T18:25:35.137Z,96841.34
2023-03-01T18:28:02.729Z,96837.13
2023-03-01T18:30:30.275Z,96836.44
2023-03-01T18:32:59.196Z,96838.53
2023-03-01T18:35:26.731Z,96840.59
2023-03-01T18:37:54.315Z,96839.94
2023-03-01T18:40:21.868Z,96830.53
2023-03-01T18:42:49.425Z,96836.97
2023-03-01T18:45:31.752Z,96841.50
2023-03-01T18:48:04.950Z,96833.19
2023-03-01T18:50:33.119Z,96830.06
2023-03-01T18:53:00.689Z,96830.50
2023-03-01T18:55:28.233Z,96824.00
2023-03-01T18:57:55.864Z,96827.97
2023-03-01T19:00:24.470Z,96828.91
2023-03-01T19:02:52.095Z,96824.19
2023-03-01T19:05:21.144Z,96825.44
2023-03-01T19:07:49.141Z,96823.94
2023-03-01T19:10:17.250Z,96826.84
2023-03-01T19:12:44.904Z,96820.47
2023-03-01T19:15:13.637Z,96821.88
2023-03-01T19:17:41.501Z,96816.28
2023-03-01T19:20:10.734Z,96814.97
2023-03-01T19:22:40.203Z,96816.22
2023-03-01T19:25:08.811Z,96814.88
2023-03-01T19:27:36.548Z,96812.56
2023-03-01T19:30:04.711Z,96810.28
2023-03-01T19:32:34.690Z,96804.44
2023-03-01T19:35:02.327Z,96810.56
2023-03-01T19:37:29.971Z,96810.03
2023-03-01T19:39:59.269Z,96803.66
2023-03-01T19:42:28.356Z,96798.09
2023-03-01T19:44:56.188Z,96797.44
2023-03-01T19:47:23.869Z,96799.34
2023-03-01T19:49:51.702Z,96793.63
2023-03-01T19:52:19.436Z,96801.69
2023-03-01T19:54:47.192Z,96799.41
2023-03-01T19:57:19.704Z,96793.38
2023-03-01T19:59:50.831Z,96789.19
2023-03-01T20:02:18.554Z,96790.28
2023-03-01T20:04:46.529Z,96793.00
2023-03-01T20:07:14.671Z,96786.22
2023-03-01T20:09:42.674Z,96782.97
2023-03-01T20:12:10.591Z,96785.69
2023-03-01T20:14:40.708Z,96787.59
2023-03-01T20:17:08.612Z,96789.38
2023-03-01T20:19:37.253Z,96780.66
2023-03-01T20:22:07.704Z,96783.53
2023-03-01T20:24:35.320Z,96783.78
2023-03-01T20:27:03.187Z,96784.09
2023-03-01T20:29:30.788Z,96781.78
2023-03-01T20:32:00.053Z,96788.72
2023-03-01T20:34:27.749Z,96777.56
2023-03-01T20:36:55.446Z,96785.31
2023-03-01T20:39:23.121Z,96781.38
2023-03-01T20:41:50.689Z,96787.78
2023-03-01T20:44:18.288Z,96785.50
2023-03-01T20:46:46.203Z,96798.53
2023-03-01T20:49:15.489Z,96796.13
2023-03-01T20:51:44.273Z,96790.41
2023-03-01T20:54:11.870Z,96788.91
2023-03-01T20:56:39.527Z,96787.28
2023-03-01T20:59:09.696Z,96791.75
2023-03-01T21:01:39.440Z,96786.88
2023-03-01T21:04:07.561Z,96786.34
2023-03-01T21:06:37.842Z,96791.78
2023-03-01T21:09:05.977Z,96786.91
2023-03-01T21:11:33.619Z,96789.88
2023-03-01T21:14:01.598Z,96790.31
2023-03-01T21:16:29.284Z,96782.84
2023-03-01T21:18:56.968Z,96779.59
2023-03-01T21:21:25.064Z,96779.59
2023-03-01T21:23:54.706Z,96772.81
2023-03-01T21:26:23.700Z,96767.63
2023-03-01T21:28:54.290Z,96778.91
2023-03-01T21:31:23.617Z,96777.41
2023-03-01T21:33:53.087Z,96780.94
2023-03-01T21:36:22.014Z,96781.22
2023-03-01T21:38:50.952Z,96778.63
2023-03-01T21:41:22.268Z,96770.91
2023-03-01T21:43:51.842Z,96775.25
2023-03-01T21:46:21.364Z,96771.03
2023-03-01T21:48:50.133Z,96783.41
2023-03-01T21:51:19.215Z,96771.56
2023-03-01T21:53:47.806Z,96776.88
2023-03-01T21:56:16.993Z,96774.44
2023-03-01T21:58:46.106Z,96773.88
2023-03-01T22:04:25.006Z,96764.25
2023-03-01T22:06:54.504Z,96761.28
2023-03-01T22:09:24.174Z,96769.41
2023-03-01T22:11:53.986Z,96761.94
2023-03-01T22:14:23.344Z,96769.00
2023-03-01T22:16:51.860Z,96765.75
2023-03-01T22:19:20.445Z,96760.84
2023-03-01T22:21:50.495Z,96763.56
2023-03-01T22:24:19.897Z,96761.25
2023-03-01T22:26:49.512Z,96757.84
2023-03-01T22:29:19.424Z,96749.97
2023-03-01T22:31:48.689Z,96756.50
2023-03-01T22:34:17.240Z,96751.06
2023-03-01T22:36:45.509Z,96762.84
2023-03-01T22:39:15.809Z,96760.81
2023-03-01T22:41:45.857Z,96758.91
2023-03-01T22:44:14.593Z,96767.84
2023-03-01T22:46:42.504Z,96755.94
2023-03-01T22:49:11.549Z,96759.31
2023-03-01T22:51:41.324Z,96752.66
2023-03-01T22:54:09.900Z,96754.81
2023-03-01T22:56:38.596Z,96749.91
2023-03-01T22:59:09.653Z,96748.28
2023-03-01T23:01:38.236Z,96751.13
2023-03-01T23:04:05.960Z,96749.75
2023-03-01T23:06:50.422Z,96750.03
2023-03-01T23:09:19.759Z,96756.94
2023-03-01T23:11:47.308Z,96754.91
2023-03-01T23:14:16.167Z,96751.81
2023-03-01T23:16:44.012Z,96750.84
2023-03-01T23:19:11.762Z,96744.34
2023-03-01T23:21:44.267Z,96742.03
2023-03-01T23:24:11.851Z,96742.84
2023-03-01T23:26:40.401Z,96743.00
2023-03-01T23:29:09.053Z,96745.56
2023-03-01T23:31:36.992Z,96741.78
2023-03-01T23:34:05.027Z,96743.09
2023-03-01T23:36:35.068Z,96743.91
2023-03-01T23:39:07.615Z,96742.53
2023-03-01T23:41:35.935Z,96744.44
2023-03-01T23:44:05.263Z,96737.09
2023-03-01T23:46:35.555Z,96738.19
2023-03-01T23:49:04.637Z,96733.31
2023-03-01T23:51:32.555Z,96732.34
2023-03-01T23:54:05.212Z,96737.09
2023-03-01T23:56:36.796Z,96735.72
2023-03-01T23:59:09.119Z,96730.94
